sensor_id;sensor_type;location;lat;lon;timestamp;P1;durP1;ratioP1;P2;durP2;ratioP2
61085;SDS011;46967;48.876;2.136;2023-09-07T00:00:19;5.90;;;2.38;;
61085;SDS011;46967;48.876;2.136;2023-09-07T00:02:44;4.65;;;2.53;;
61085;SDS011;46967;48.876;2.136;2023-09-07T00:05:10;4.10;;;2.55;;
61085;SDS011;46967;48.876;2.136;2023-09-07T00:07:35;5.05;;;2.78;;
61085;SDS011;46967;48.876;2.136;2023-09-07T00:10:01;4.80;;;2.90;;
61085;SDS011;46967;48.876;2.136;2023-09-07T00:12:27;4.57;;;2.70;;
61085;SDS011;46967;48.876;2.136;2023-09-07T00:14:53;4.20;;;2.50;;
61085;SDS011;46967;48.876;2.136;2023-09-07T00:17:19;3.70;;;2.67;;
61085;SDS011;46967;48.876;2.136;2023-09-07T00:19:45;4.70;;;2.30;;
61085;SDS011;46967;48.876;2.136;2023-09-07T00:22:12;4.65;;;2.38;;
61085;SDS011;46967;48.876;2.136;2023-09-07T00:24:37;3.90;;;2.60;;
61085;SDS011;46967;48.876;2.136;2023-09-07T00:27:03;2.90;;;2.35;;
61085;SDS011;46967;48.876;2.136;2023-09-07T00:29:30;4.88;;;2.30;;
61085;SDS011;46967;48.876;2.136;2023-09-07T00:31:56;5.93;;;3.03;;
61085;SDS011;46967;48.876;2.136;2023-09-07T00:34:21;4.18;;;2.67;;
61085;SDS011;46967;48.876;2.136;2023-09-07T00:36:47;3.50;;;2.33;;
61085;SDS011;46967;48.876;2.136;2023-09-07T00:39:12;5.47;;;2.28;;
61085;SDS011;46967;48.876;2.136;2023-09-07T00:41:37;6.43;;;2.50;;
61085;SDS011;46967;48.876;2.136;2023-09-07T00:44:03;3.45;;;2.60;;
61085;SDS011;46967;48.876;2.136;2023-09-07T00:46:29;3.60;;;2.70;;
61085;SDS011;46967;48.876;2.136;2023-09-07T00:48:54;5.72;;;2.58;;
61085;SDS011;46967;48.876;2.136;2023-09-07T00:51:20;5.63;;;2.72;;
61085;SDS011;46967;48.876;2.136;2023-09-07T00:53:46;5.57;;;3.03;;
61085;SDS011;46967;48.876;2.136;2023-09-07T00:56:11;4.57;;;2.40;;
61085;SDS011;46967;48.876;2.136;2023-09-07T00:58:37;3.88;;;2.63;;
61085;SDS011;46967;48.876;2.136;2023-09-07T01:01:03;4.38;;;2.65;;
61085;SDS011;46967;48.876;2.136;2023-09-07T01:03:28;3.60;;;2.60;;
61085;SDS011;46967;48.876;2.136;2023-09-07T01:08:23;4.45;;;2.60;;
61085;SDS011;46967;48.876;2.136;2023-09-07T01:10:52;7.28;;;2.92;;
61085;SDS011;46967;48.876;2.136;2023-09-07T01:13:18;4.57;;;2.97;;
61085;SDS011;46967;48.876;2.136;2023-09-07T01:15:44;6.30;;;2.72;;
61085;SDS011;46967;48.876;2.136;2023-09-07T01:18:09;3.97;;;2.58;;
61085;SDS011;46967;48.876;2.136;2023-09-07T01:20:35;5.22;;;2.83;;
61085;SDS011;46967;48.876;2.136;2023-09-07T01:23:02;4.30;;;2.40;;
61085;SDS011;46967;48.876;2.136;2023-09-07T01:25:29;4.07;;;2.40;;
61085;SDS011;46967;48.876;2.136;2023-09-07T01:27:56;4.93;;;2.75;;
61085;SDS011;46967;48.876;2.136;2023-09-07T01:30:21;4.60;;;3.00;;
61085;SDS011;46967;48.876;2.136;2023-09-07T01:32:47;6.55;;;2.60;;
61085;SDS011;46967;48.876;2.136;2023-09-07T01:35:14;4.85;;;2.58;;
61085;SDS011;46967;48.876;2.136;2023-09-07T01:37:41;4.70;;;2.60;;
61085;SDS011;46967;48.876;2.136;2023-09-07T01:40:07;10.43;;;2.85;;
61085;SDS011;46967;48.876;2.136;2023-09-07T01:42:33;3.67;;;2.85;;
61085;SDS011;46967;48.876;2.136;2023-09-07T01:44:59;4.43;;;2.60;;
61085;SDS011;46967;48.876;2.136;2023-09-07T01:47:24;3.25;;;2.53;;
61085;SDS011;46967;48.876;2.136;2023-09-07T01:49:49;5.93;;;2.90;;
61085;SDS011;46967;48.876;2.136;2023-09-07T01:52:15;5.97;;;3.08;;
61085;SDS011;46967;48.876;2.136;2023-09-07T01:54:40;4.20;;;2.80;;
61085;SDS011;46967;48.876;2.136;2023-09-07T01:57:06;5.15;;;2.80;;
61085;SDS011;46967;48.876;2.136;2023-09-07T01:59:31;3.97;;;3.00;;
61085;SDS011;46967;48.876;2.136;2023-09-07T02:01:56;4.50;;;2.60;;
61085;SDS011;46967;48.876;2.136;2023-09-07T02:04:22;6.13;;;2.80;;
61085;SDS011;46967;48.876;2.136;2023-09-07T02:06:47;5.45;;;2.80;;
61085;SDS011;46967;48.876;2.136;2023-09-07T02:09:12;4.38;;;2.40;;
61085;SDS011;46967;48.876;2.136;2023-09-07T02:11:38;9.38;;;2.85;;
61085;SDS011;46967;48.876;2.136;2023-09-07T02:14:04;7.00;;;2.53;;
61085;SDS011;46967;48.876;2.136;2023-09-07T02:16:30;7.75;;;2.92;;
61085;SDS011;46967;48.876;2.136;2023-09-07T02:19:02;4.28;;;2.78;;
61085;SDS011;46967;48.876;2.136;2023-09-07T02:21:31;5.53;;;2.78;;
61085;SDS011;46967;48.876;2.136;2023-09-07T02:23:57;7.07;;;2.60;;
61085;SDS011;46967;48.876;2.136;2023-09-07T02:26:22;5.32;;;2.88;;
61085;SDS011;46967;48.876;2.136;2023-09-07T02:28:48;4.00;;;2.60;;
61085;SDS011;46967;48.876;2.136;2023-09-07T02:31:13;4.55;;;2.70;;
61085;SDS011;46967;48.876;2.136;2023-09-07T02:33:39;3.42;;;2.42;;
61085;SDS011;46967;48.876;2.136;2023-09-07T02:36:04;4.60;;;2.88;;
61085;SDS011;46967;48.876;2.136;2023-09-07T02:38:29;4.45;;;3.08;;
61085;SDS011;46967;48.876;2.136;2023-09-07T02:40:55;5.38;;;3.10;;
61085;SDS011;46967;48.876;2.136;2023-09-07T02:43:21;4.07;;;2.85;;
61085;SDS011;46967;48.876;2.136;2023-09-07T02:45:48;6.70;;;3.00;;
61085;SDS011;46967;48.876;2.136;2023-09-07T02:48:14;4.20;;;2.92;;
61085;SDS011;46967;48.876;2.136;2023-09-07T02:50:39;6.60;;;3.15;;
61085;SDS011;46967;48.876;2.136;2023-09-07T02:53:05;6.35;;;3.05;;
61085;SDS011;46967;48.876;2.136;2023-09-07T02:55:30;5.70;;;3.17;;
61085;SDS011;46967;48.876;2.136;2023-09-07T02:57:56;6.25;;;3.30;;
61085;SDS011;46967;48.876;2.136;2023-09-07T03:00:21;4.40;;;3.05;;
61085;SDS011;46967;48.876;2.136;2023-09-07T03:02:47;3.97;;;2.60;;
61085;SDS011;46967;48.876;2.136;2023-09-07T03:05:13;6.35;;;3.13;;
61085;SDS011;46967;48.876;2.136;2023-09-07T03:07:41;4.53;;;2.88;;
61085;SDS011;46967;48.876;2.136;2023-09-07T03:10:09;5.07;;;3.25;;
61085;SDS011;46967;48.876;2.136;2023-09-07T03:12:35;4.15;;;2.80;;
61085;SDS011;46967;48.876;2.136;2023-09-07T03:15:00;4.35;;;2.90;;
61085;SDS011;46967;48.876;2.136;2023-09-07T03:17:28;4.80;;;3.10;;
61085;SDS011;46967;48.876;2.136;2023-09-07T03:19:54;5.97;;;3.05;;
61085;SDS011;46967;48.876;2.136;2023-09-07T03:22:19;4.40;;;2.95;;
61085;SDS011;46967;48.876;2.136;2023-09-07T03:24:45;9.93;;;3.20;;
61085;SDS011;46967;48.876;2.136;2023-09-07T03:27:10;5.43;;;3.00;;
61085;SDS011;46967;48.876;2.136;2023-09-07T03:29:36;4.80;;;2.83;;
61085;SDS011;46967;48.876;2.136;2023-09-07T03:32:02;3.95;;;2.85;;
61085;SDS011;46967;48.876;2.136;2023-09-07T03:34:27;10.82;;;3.03;;
61085;SDS011;46967;48.876;2.136;2023-09-07T03:36:53;8.45;;;3.13;;
61085;SDS011;46967;48.876;2.136;2023-09-07T03:39:18;3.90;;;2.72;;
61085;SDS011;46967;48.876;2.136;2023-09-07T03:41:46;6.65;;;2.90;;
61085;SDS011;46967;48.876;2.136;2023-09-07T03:44:12;3.80;;;2.85;;
61085;SDS011;46967;48.876;2.136;2023-09-07T03:46:37;8.55;;;3.00;;
61085;SDS011;46967;48.876;2.136;2023-09-07T03:49:02;5.70;;;3.28;;
61085;SDS011;46967;48.876;2.136;2023-09-07T03:51:28;5.32;;;2.85;;
61085;SDS011;46967;48.876;2.136;2023-09-07T03:53:53;3.58;;;2.40;;
61085;SDS011;46967;48.876;2.136;2023-09-07T03:56:19;4.88;;;3.17;;
61085;SDS011;46967;48.876;2.136;2023-09-07T03:58:44;5.22;;;3.10;;
61085;SDS011;46967;48.876;2.136;2023-09-07T04:01:12;4.88;;;3.00;;
61085;SDS011;46967;48.876;2.136;2023-09-07T04:03:37;8.35;;;3.25;;
61085;SDS011;46967;48.876;2.136;2023-09-07T04:06:02;3.47;;;2.53;;
61085;SDS011;46967;48.876;2.136;2023-09-07T04:08:28;6.95;;;2.80;;
61085;SDS011;46967;48.876;2.136;2023-09-07T04:10:53;4.95;;;2.58;;
61085;SDS011;46967;48.876;2.136;2023-09-07T04:13:19;4.07;;;2.70;;
61085;SDS011;46967;48.876;2.136;2023-09-07T04:15:45;4.90;;;2.70;;
61085;SDS011;46967;48.876;2.136;2023-09-07T04:18:11;5.07;;;3.15;;
61085;SDS011;46967;48.876;2.136;2023-09-07T04:20:38;3.33;;;2.63;;
61085;SDS011;46967;48.876;2.136;2023-09-07T04:23:04;3.75;;;2.72;;
61085;SDS011;46967;48.876;2.136;2023-09-07T04:25:30;5.18;;;2.80;;
61085;SDS011;46967;48.876;2.136;2023-09-07T04:27:55;5.03;;;2.95;;
61085;SDS011;46967;48.876;2.136;2023-09-07T04:30:21;8.07;;;3.15;;
61085;SDS011;46967;48.876;2.136;2023-09-07T04:32:47;4.60;;;3.20;;
61085;SDS011;46967;48.876;2.136;2023-09-07T04:35:13;5.07;;;3.15;;
61085;SDS011;46967;48.876;2.136;2023-09-07T04:37:38;5.95;;;3.13;;
61085;SDS011;46967;48.876;2.136;2023-09-07T04:40:08;5.50;;;2.80;;
61085;SDS011;46967;48.876;2.136;2023-09-07T04:42:34;5.25;;;3.22;;
61085;SDS011;46967;48.876;2.136;2023-09-07T04:44:59;4.43;;;2.85;;
61085;SDS011;46967;48.876;2.136;2023-09-07T04:47:24;3.45;;;2.72;;
61085;SDS011;46967;48.876;2.136;2023-09-07T04:49:49;8.40;;;3.13;;
61085;SDS011;46967;48.876;2.136;2023-09-07T04:52:18;7.22;;;3.55;;
61085;SDS011;46967;48.876;2.136;2023-09-07T04:54:43;6.63;;;2.97;;
61085;SDS011;46967;48.876;2.136;2023-09-07T04:57:09;6.32;;;3.53;;
61085;SDS011;46967;48.876;2.136;2023-09-07T04:59:35;6.20;;;3.13;;
61085;SDS011;46967;48.876;2.136;2023-09-07T05:02:00;4.88;;;2.85;;
61085;SDS011;46967;48.876;2.136;2023-09-07T05:04:28;4.25;;;3.03;;
61085;SDS011;46967;48.876;2.136;2023-09-07T05:06:54;4.40;;;2.88;;
61085;SDS011;46967;48.876;2.136;2023-09-07T05:09:21;5.85;;;2.90;;
61085;SDS011;46967;48.876;2.136;2023-09-07T05:11:46;6.85;;;2.78;;
61085;SDS011;46967;48.876;2.136;2023-09-07T05:14:11;4.82;;;2.92;;
61085;SDS011;46967;48.876;2.136;2023-09-07T05:16:37;5.40;;;2.88;;
61085;SDS011;46967;48.876;2.136;2023-09-07T05:19:02;10.60;;;2.90;;
61085;SDS011;46967;48.876;2.136;2023-09-07T05:21:28;4.90;;;2.90;;
61085;SDS011;46967;48.876;2.136;2023-09-07T05:23:53;4.20;;;3.00;;
61085;SDS011;46967;48.876;2.136;2023-09-07T05:26:22;5.93;;;3.10;;
61085;SDS011;46967;48.876;2.136;2023-09-07T05:28:49;6.72;;;2.75;;
61085;SDS011;46967;48.876;2.136;2023-09-07T05:31:14;5.90;;;2.80;;
61085;SDS011;46967;48.876;2.136;2023-09-07T05:33:40;6.28;;;3.15;;
61085;SDS011;46967;48.876;2.136;2023-09-07T05:36:05;4.95;;;3.15;;
61085;SDS011;46967;48.876;2.136;2023-09-07T05:38:30;3.80;;;2.60;;
61085;SDS011;46967;48.876;2.136;2023-09-07T05:40:56;4.78;;;2.70;;
61085;SDS011;46967;48.876;2.136;2023-09-07T05:43:21;6.63;;;3.40;;
61085;SDS011;46967;48.876;2.136;2023-09-07T05:45:46;6.22;;;3.50;;
61085;SDS011;46967;48.876;2.136;2023-09-07T05:48:12;4.75;;;3.13;;
61085;SDS011;46967;48.876;2.136;2023-09-07T05:50:38;7.78;;;3.50;;
61085;SDS011;46967;48.876;2.136;2023-09-07T05:53:05;7.40;;;3.38;;
61085;SDS011;46967;48.876;2.136;2023-09-07T05:55:31;5.35;;;3.17;;
61085;SDS011;46967;48.876;2.136;2023-09-07T05:57:57;5.93;;;3.10;;
61085;SDS011;46967;48.876;2.136;2023-09-07T06:00:23;5.05;;;3.38;;
61085;SDS011;46967;48.876;2.136;2023-09-07T06:02:48;6.65;;;3.20;;
61085;SDS011;46967;48.876;2.136;2023-09-07T06:05:14;4.93;;;2.83;;
61085;SDS011;46967;48.876;2.136;2023-09-07T06:07:39;9.52;;;3.58;;
61085;SDS011;46967;48.876;2.136;2023-09-07T06:10:05;7.43;;;3.35;;
61085;SDS011;46967;48.876;2.136;2023-09-07T06:12:32;5.80;;;3.05;;
61085;SDS011;46967;48.876;2.136;2023-09-07T06:14:59;6.35;;;3.47;;
61085;SDS011;46967;48.876;2.136;2023-09-07T06:17:25;6.50;;;3.70;;
61085;SDS011;46967;48.876;2.136;2023-09-07T06:19:50;9.38;;;3.45;;
61085;SDS011;46967;48.876;2.136;2023-09-07T06:22:16;9.63;;;3.28;;
61085;SDS011;46967;48.876;2.136;2023-09-07T06:24:41;6.50;;;3.67;;
61085;SDS011;46967;48.876;2.136;2023-09-07T06:27:06;7.72;;;4.10;;
61085;SDS011;46967;48.876;2.136;2023-09-07T06:29:32;12.10;;;4.45;;
61085;SDS011;46967;48.876;2.136;2023-09-07T06:31:57;6.32;;;3.75;;
61085;SDS011;46967;48.876;2.136;2023-09-07T06:34:23;9.13;;;4.22;;
61085;SDS011;46967;48.876;2.136;2023-09-07T06:36:48;9.57;;;4.75;;
61085;SDS011;46967;48.876;2.136;2023-09-07T06:39:14;9.88;;;4.40;;
61085;SDS011;46967;48.876;2.136;2023-09-07T06:41:39;9.07;;;4.97;;
61085;SDS011;46967;48.876;2.136;2023-09-07T06:44:04;8.57;;;4.00;;
61085;SDS011;46967;48.876;2.136;2023-09-07T06:46:30;12.73;;;4.53;;
61085;SDS011;46967;48.876;2.136;2023-09-07T06:48:55;14.25;;;5.00;;
61085;SDS011;46967;48.876;2.136;2023-09-07T06:51:20;12.27;;;4.60;;
61085;SDS011;46967;48.876;2.136;2023-09-07T06:53:46;7.68;;;4.65;;
61085;SDS011;46967;48.876;2.136;2023-09-07T06:56:12;13.45;;;5.10;;
61085;SDS011;46967;48.876;2.136;2023-09-07T06:58:37;11.77;;;5.32;;
61085;SDS011;46967;48.876;2.136;2023-09-07T07:01:02;9.50;;;5.30;;
61085;SDS011;46967;48.876;2.136;2023-09-07T07:03:29;10.75;;;5.75;;
61085;SDS011;46967;48.876;2.136;2023-09-07T07:05:56;17.40;;;6.13;;
61085;SDS011;46967;48.876;2.136;2023-09-07T07:08:22;12.00;;;5.63;;
61085;SDS011;46967;48.876;2.136;2023-09-07T07:10:48;9.23;;;5.30;;
61085;SDS011;46967;48.876;2.136;2023-09-07T07:13:14;8.98;;;4.75;;
61085;SDS011;46967;48.876;2.136;2023-09-07T07:15:39;15.45;;;5.35;;
61085;SDS011;46967;48.876;2.136;2023-09-07T07:18:05;13.35;;;5.57;;
61085;SDS011;46967;48.876;2.136;2023-09-07T07:20:40;10.48;;;5.85;;
61085;SDS011;46967;48.876;2.136;2023-09-07T07:23:06;15.18;;;5.00;;
61085;SDS011;46967;48.876;2.136;2023-09-07T07:25:32;11.02;;;6.15;;
61085;SDS011;46967;48.876;2.136;2023-09-07T07:28:02;6.93;;;5.15;;
61085;SDS011;46967;48.876;2.136;2023-09-07T07:30:34;11.25;;;5.40;;
61085;SDS011;46967;48.876;2.136;2023-09-07T07:33:01;9.43;;;5.25;;
61085;SDS011;46967;48.876;2.136;2023-09-07T07:35:28;13.30;;;5.80;;
61085;SDS011;46967;48.876;2.136;2023-09-07T07:37:54;14.30;;;5.85;;
61085;SDS011;46967;48.876;2.136;2023-09-07T07:40:20;11.45;;;4.97;;
61085;SDS011;46967;48.876;2.136;2023-09-07T07:42:46;10.25;;;5.05;;
61085;SDS011;46967;48.876;2.136;2023-09-07T07:45:12;10.27;;;5.20;;
61085;SDS011;46967;48.876;2.136;2023-09-07T07:47:39;10.10;;;4.95;;
61085;SDS011;46967;48.876;2.136;2023-09-07T07:50:05;10.65;;;5.15;;
61085;SDS011;46967;48.876;2.136;2023-09-07T07:52:31;11.38;;;4.70;;
61085;SDS011;46967;48.876;2.136;2023-09-07T07:54:56;11.02;;;5.68;;
61085;SDS011;46967;48.876;2.136;2023-09-07T07:57:22;10.48;;;4.68;;
61085;SDS011;46967;48.876;2.136;2023-09-07T07:59:47;18.35;;;5.05;;
61085;SDS011;46967;48.876;2.136;2023-09-07T08:02:12;13.38;;;5.20;;
61085;SDS011;46967;48.876;2.136;2023-09-07T08:04:37;10.48;;;5.15;;
61085;SDS011;46967;48.876;2.136;2023-09-07T08:07:03;13.65;;;5.65;;
61085;SDS011;46967;48.876;2.136;2023-09-07T08:09:32;9.77;;;4.55;;
61085;SDS011;46967;48.876;2.136;2023-09-07T08:11:57;15.90;;;4.37;;
61085;SDS011;46967;48.876;2.136;2023-09-07T08:14:23;11.55;;;4.82;;
61085;SDS011;46967;48.876;2.136;2023-09-07T08:16:49;15.23;;;4.85;;
61085;SDS011;46967;48.876;2.136;2023-09-07T08:19:14;13.23;;;4.82;;
61085;SDS011;46967;48.876;2.136;2023-09-07T08:21:40;14.90;;;5.30;;
61085;SDS011;46967;48.876;2.136;2023-09-07T08:24:07;10.18;;;4.45;;
61085;SDS011;46967;48.876;2.136;2023-09-07T08:26:33;16.67;;;4.97;;
61085;SDS011;46967;48.876;2.136;2023-09-07T08:28:58;15.35;;;5.75;;
61085;SDS011;46967;48.876;2.136;2023-09-07T08:31:23;11.98;;;4.70;;
61085;SDS011;46967;48.876;2.136;2023-09-07T08:33:49;15.23;;;5.40;;
61085;SDS011;46967;48.876;2.136;2023-09-07T08:36:20;16.15;;;5.60;;
61085;SDS011;46967;48.876;2.136;2023-09-07T08:38:47;12.27;;;5.03;;
61085;SDS011;46967;48.876;2.136;2023-09-07T08:41:13;9.13;;;4.50;;
61085;SDS011;46967;48.876;2.136;2023-09-07T08:43:39;10.85;;;5.18;;
61085;SDS011;46967;48.876;2.136;2023-09-07T08:46:13;13.75;;;4.50;;
61085;SDS011;46967;48.876;2.136;2023-09-07T08:48:40;10.02;;;4.50;;
61085;SDS011;46967;48.876;2.136;2023-09-07T08:51:07;11.43;;;4.38;;
61085;SDS011;46967;48.876;2.136;2023-09-07T08:53:34;12.20;;;4.15;;
61085;SDS011;46967;48.876;2.136;2023-09-07T08:56:01;17.42;;;4.70;;
61085;SDS011;46967;48.876;2.136;2023-09-07T08:58:27;11.68;;;4.40;;
61085;SDS011;46967;48.876;2.136;2023-09-07T09:00:52;10.57;;;4.18;;
61085;SDS011;46967;48.876;2.136;2023-09-07T09:03:21;7.00;;;4.03;;
61085;SDS011;46967;48.876;2.136;2023-09-07T09:05:48;11.02;;;4.30;;
61085;SDS011;46967;48.876;2.136;2023-09-07T09:08:15;11.88;;;4.13;;
61085;SDS011;46967;48.876;2.136;2023-09-07T09:10:45;6.95;;;3.95;;
61085;SDS011;46967;48.876;2.136;2023-09-07T09:13:10;10.98;;;4.18;;
61085;SDS011;46967;48.876;2.136;2023-09-07T09:15:36;9.05;;;3.90;;
61085;SDS011;46967;48.876;2.136;2023-09-07T09:18:11;8.05;;;4.03;;
61085;SDS011;46967;48.876;2.136;2023-09-07T09:20:38;12.10;;;3.50;;
61085;SDS011;46967;48.876;2.136;2023-09-07T09:23:04;10.95;;;3.17;;
61085;SDS011;46967;48.876;2.136;2023-09-07T09:25:30;7.35;;;3.92;;
61085;SDS011;46967;48.876;2.136;2023-09-07T09:27:56;10.40;;;4.22;;
61085;SDS011;46967;48.876;2.136;2023-09-07T09:30:22;16.83;;;4.53;;
61085;SDS011;46967;48.876;2.136;2023-09-07T09:32:48;10.52;;;4.05;;
61085;SDS011;46967;48.876;2.136;2023-09-07T09:35:16;12.20;;;3.97;;
61085;SDS011;46967;48.876;2.136;2023-09-07T09:37:43;13.85;;;4.65;;
61085;SDS011;46967;48.876;2.136;2023-09-07T09:40:13;6.82;;;4.38;;
61085;SDS011;46967;48.876;2.136;2023-09-07T09:42:42;18.48;;;4.30;;
61085;SDS011;46967;48.876;2.136;2023-09-07T09:45:09;11.15;;;4.05;;
61085;SDS011;46967;48.876;2.136;2023-09-07T09:47:40;11.05;;;4.70;;
61085;SDS011;46967;48.876;2.136;2023-09-07T09:50:07;12.65;;;4.68;;
61085;SDS011;46967;48.876;2.136;2023-09-07T09:52:34;13.70;;;4.07;;
61085;SDS011;46967;48.876;2.136;2023-09-07T09:55:02;15.27;;;4.13;;
61085;SDS011;46967;48.876;2.136;2023-09-07T09:57:33;11.40;;;4.28;;
61085;SDS011;46967;48.876;2.136;2023-09-07T10:00:02;8.70;;;4.00;;
61085;SDS011;46967;48.876;2.136;2023-09-07T10:02:51;9.07;;;4.20;;
61085;SDS011;46967;48.876;2.136;2023-09-07T10:05:21;10.57;;;4.10;;
61085;SDS011;46967;48.876;2.136;2023-09-07T10:07:48;16.10;;;4.40;;
61085;SDS011;46967;48.876;2.136;2023-09-07T10:10:15;8.50;;;3.60;;
61085;SDS011;46967;48.876;2.136;2023-09-07T10:12:43;8.73;;;4.03;;
61085;SDS011;46967;48.876;2.136;2023-09-07T10:15:22;7.82;;;3.67;;
61085;SDS011;46967;48.876;2.136;2023-09-07T10:17:48;10.65;;;4.05;;
61085;SDS011;46967;48.876;2.136;2023-09-07T10:22:43;9.43;;;4.40;;
61085;SDS011;46967;48.876;2.136;2023-09-07T10:25:22;8.85;;;3.13;;
61085;SDS011;46967;48.876;2.136;2023-09-07T10:27:48;14.15;;;4.00;;
61085;SDS011;46967;48.876;2.136;2023-09-07T10:30:13;9.55;;;3.85;;
61085;SDS011;46967;48.876;2.136;2023-09-07T10:32:44;10.80;;;3.60;;
61085;SDS011;46967;48.876;2.136;2023-09-07T10:35:13;6.65;;;3.80;;
61085;SDS011;46967;48.876;2.136;2023-09-07T10:37:40;17.15;;;3.53;;
61085;SDS011;46967;48.876;2.136;2023-09-07T10:40:06;7.95;;;3.72;;
61085;SDS011;46967;48.876;2.136;2023-09-07T10:42:36;11.20;;;3.88;;
61085;SDS011;46967;48.876;2.136;2023-09-07T10:45:12;8.02;;;3.42;;
61085;SDS011;46967;48.876;2.136;2023-09-07T10:47:43;9.40;;;3.70;;
61085;SDS011;46967;48.876;2.136;2023-09-07T10:50:12;9.65;;;3.25;;
61085;SDS011;46967;48.876;2.136;2023-09-07T10:52:38;7.80;;;3.42;;
61085;SDS011;46967;48.876;2.136;2023-09-07T10:55:08;9.32;;;3.28;;
61085;SDS011;46967;48.876;2.136;2023-09-07T10:57:44;5.87;;;3.33;;
61085;SDS011;46967;48.876;2.136;2023-09-07T11:00:12;11.40;;;3.67;;
61085;SDS011;46967;48.876;2.136;2023-09-07T11:02:39;10.52;;;3.30;;
61085;SDS011;46967;48.876;2.136;2023-09-07T11:05:05;7.93;;;3.33;;
61085;SDS011;46967;48.876;2.136;2023-09-07T11:07:32;11.27;;;3.60;;
61085;SDS011;46967;48.876;2.136;2023-09-07T11:09:58;16.67;;;3.97;;
61085;SDS011;46967;48.876;2.136;2023-09-07T11:12:23;10.80;;;3.90;;
61085;SDS011;46967;48.876;2.136;2023-09-07T11:14:49;13.00;;;3.30;;
61085;SDS011;46967;48.876;2.136;2023-09-07T11:17:15;15.35;;;3.83;;
61085;SDS011;46967;48.876;2.136;2023-09-07T11:19:41;7.07;;;3.50;;
61085;SDS011;46967;48.876;2.136;2023-09-07T11:22:09;13.02;;;3.65;;
61085;SDS011;46967;48.876;2.136;2023-09-07T11:24:35;12.27;;;3.67;;
61085;SDS011;46967;48.876;2.136;2023-09-07T11:27:00;9.55;;;3.20;;
61085;SDS011;46967;48.876;2.136;2023-09-07T11:29:25;13.27;;;3.60;;
61085;SDS011;46967;48.876;2.136;2023-09-07T11:31:51;10.52;;;3.30;;
61085;SDS011;46967;48.876;2.136;2023-09-07T11:34:16;11.85;;;3.55;;
61085;SDS011;46967;48.876;2.136;2023-09-07T11:36:42;8.60;;;4.07;;
61085;SDS011;46967;48.876;2.136;2023-09-07T11:39:08;15.00;;;3.92;;
61085;SDS011;46967;48.876;2.136;2023-09-07T11:41:40;9.10;;;3.95;;
61085;SDS011;46967;48.876;2.136;2023-09-07T11:44:07;9.75;;;3.40;;
61085;SDS011;46967;48.876;2.136;2023-09-07T11:46:33;12.15;;;3.80;;
61085;SDS011;46967;48.876;2.136;2023-09-07T11:48:59;13.43;;;3.80;;
61085;SDS011;46967;48.876;2.136;2023-09-07T11:51:24;12.70;;;3.90;;
61085;SDS011;46967;48.876;2.136;2023-09-07T11:53:50;6.75;;;3.28;;
61085;SDS011;46967;48.876;2.136;2023-09-07T11:56:15;10.27;;;3.67;;
61085;SDS011;46967;48.876;2.136;2023-09-07T11:58:41;8.88;;;3.35;;
61085;SDS011;46967;48.876;2.136;2023-09-07T12:01:07;9.63;;;4.07;;
61085;SDS011;46967;48.876;2.136;2023-09-07T12:03:33;11.45;;;3.85;;
61085;SDS011;46967;48.876;2.136;2023-09-07T12:05:59;10.48;;;3.33;;
61085;SDS011;46967;48.876;2.136;2023-09-07T12:08:25;13.57;;;3.67;;
61085;SDS011;46967;48.876;2.136;2023-09-07T12:10:50;9.60;;;3.67;;
61085;SDS011;46967;48.876;2.136;2023-09-07T12:13:15;7.85;;;3.67;;
61085;SDS011;46967;48.876;2.136;2023-09-07T12:15:41;6.90;;;3.70;;
61085;SDS011;46967;48.876;2.136;2023-09-07T12:18:06;11.80;;;3.95;;
61085;SDS011;46967;48.876;2.136;2023-09-07T12:20:32;9.77;;;3.78;;
61085;SDS011;46967;48.876;2.136;2023-09-07T12:22:59;9.45;;;3.72;;
61085;SDS011;46967;48.876;2.136;2023-09-07T12:25:25;7.13;;;3.50;;
61085;SDS011;46967;48.876;2.136;2023-09-07T12:27:51;11.18;;;3.60;;
61085;SDS011;46967;48.876;2.136;2023-09-07T12:30:20;10.23;;;3.30;;
61085;SDS011;46967;48.876;2.136;2023-09-07T12:32:47;8.60;;;3.70;;
61085;SDS011;46967;48.876;2.136;2023-09-07T12:35:12;9.82;;;3.70;;
61085;SDS011;46967;48.876;2.136;2023-09-07T12:37:38;9.00;;;3.75;;
61085;SDS011;46967;48.876;2.136;2023-09-07T12:40:03;10.93;;;3.90;;
61085;SDS011;46967;48.876;2.136;2023-09-07T12:42:38;9.20;;;4.07;;
61085;SDS011;46967;48.876;2.136;2023-09-07T12:45:05;7.30;;;3.55;;
61085;SDS011;46967;48.876;2.136;2023-09-07T12:47:31;17.80;;;3.65;;
61085;SDS011;46967;48.876;2.136;2023-09-07T12:49:56;13.63;;;3.80;;
61085;SDS011;46967;48.876;2.136;2023-09-07T12:52:22;14.90;;;3.58;;
61085;SDS011;46967;48.876;2.136;2023-09-07T12:54:47;10.73;;;3.80;;
61085;SDS011;46967;48.876;2.136;2023-09-07T12:57:13;6.03;;;3.70;;
61085;SDS011;46967;48.876;2.136;2023-09-07T12:59:38;10.15;;;3.78;;
61085;SDS011;46967;48.876;2.136;2023-09-07T13:02:04;15.43;;;3.75;;
61085;SDS011;46967;48.876;2.136;2023-09-07T13:04:29;7.70;;;3.60;;
61085;SDS011;46967;48.876;2.136;2023-09-07T13:06:54;9.35;;;3.72;;
61085;SDS011;46967;48.876;2.136;2023-09-07T13:09:20;9.40;;;3.42;;
61085;SDS011;46967;48.876;2.136;2023-09-07T13:11:45;13.40;;;3.60;;
61085;SDS011;46967;48.876;2.136;2023-09-07T13:14:10;6.10;;;3.30;;
61085;SDS011;46967;48.876;2.136;2023-09-07T13:16:36;7.57;;;3.78;;
61085;SDS011;46967;48.876;2.136;2023-09-07T13:19:01;7.60;;;3.60;;
61085;SDS011;46967;48.876;2.136;2023-09-07T13:21:27;8.80;;;3.42;;
61085;SDS011;46967;48.876;2.136;2023-09-07T13:23:52;9.65;;;3.47;;
61085;SDS011;46967;48.876;2.136;2023-09-07T13:26:17;8.07;;;3.22;;
61085;SDS011;46967;48.876;2.136;2023-09-07T13:28:43;5.47;;;3.20;;
61085;SDS011;46967;48.876;2.136;2023-09-07T13:31:08;6.57;;;3.35;;
61085;SDS011;46967;48.876;2.136;2023-09-07T13:33:34;12.30;;;3.45;;
61085;SDS011;46967;48.876;2.136;2023-09-07T13:35:59;9.80;;;3.40;;
61085;SDS011;46967;48.876;2.136;2023-09-07T13:38:24;7.82;;;3.08;;
61085;SDS011;46967;48.876;2.136;2023-09-07T13:40:50;10.57;;;3.10;;
61085;SDS011;46967;48.876;2.136;2023-09-07T13:43:15;9.00;;;3.50;;
61085;SDS011;46967;48.876;2.136;2023-09-07T13:45:40;7.10;;;3.20;;
61085;SDS011;46967;48.876;2.136;2023-09-07T13:48:06;5.97;;;2.78;;
61085;SDS011;46967;48.876;2.136;2023-09-07T13:50:31;5.75;;;3.15;;
61085;SDS011;46967;48.876;2.136;2023-09-07T13:52:56;8.98;;;3.38;;
61085;SDS011;46967;48.876;2.136;2023-09-07T13:55:22;6.33;;;3.33;;
61085;SDS011;46967;48.876;2.136;2023-09-07T13:57:48;8.10;;;3.00;;
61085;SDS011;46967;48.876;2.136;2023-09-07T14:00:14;7.75;;;3.00;;
61085;SDS011;46967;48.876;2.136;2023-09-07T14:02:39;5.90;;;3.10;;
61085;SDS011;46967;48.876;2.136;2023-09-07T14:05:05;5.50;;;2.80;;
61085;SDS011;46967;48.876;2.136;2023-09-07T14:07:30;4.70;;;2.83;;
61085;SDS011;46967;48.876;2.136;2023-09-07T14:09:56;9.10;;;3.03;;
61085;SDS011;46967;48.876;2.136;2023-09-07T14:12:21;9.60;;;3.72;;
61085;SDS011;46967;48.876;2.136;2023-09-07T14:14:49;6.85;;;3.05;;
61085;SDS011;46967;48.876;2.136;2023-09-07T14:17:15;7.95;;;2.97;;
61085;SDS011;46967;48.876;2.136;2023-09-07T14:19:41;13.45;;;3.20;;
61085;SDS011;46967;48.876;2.136;2023-09-07T14:22:06;6.85;;;2.72;;
61085;SDS011;46967;48.876;2.136;2023-09-07T14:24:31;5.00;;;2.60;;
61085;SDS011;46967;48.876;2.136;2023-09-07T14:26:57;7.43;;;3.17;;
61085;SDS011;46967;48.876;2.136;2023-09-07T14:29:22;8.20;;;2.85;;
61085;SDS011;46967;48.876;2.136;2023-09-07T14:31:48;8.23;;;2.38;;
61085;SDS011;46967;48.876;2.136;2023-09-07T14:34:13;9.52;;;2.90;;
61085;SDS011;46967;48.876;2.136;2023-09-07T14:36:39;4.10;;;2.65;;
61085;SDS011;46967;48.876;2.136;2023-09-07T14:39:08;3.47;;;1.67;;
61085;SDS011;46967;48.876;2.136;2023-09-07T14:41:36;6.47;;;1.90;;